Time;durP1;ratioP1;P1;durP2;ratioP2;P2;SDS_P1;SDS_P2;PMS_P1;PMS_P2;Temp;Humidity;BMP_temperature;BMP_pressure;BME280_temperature;BME280_humidity;BME280_pressure;Samples;Min_cycle;Max_cycle;Signal;HPM_P1;HPM_P2
2021/09/05 00:00:13;;;;;;;11.07;5.97;;;16.80;74.20;;;;;;5085121;28;20021;-82
2021/09/05 00:02:39;;;;;;;11.23;6.80;;;16.70;74.10;;;;;;5063509;28;20046;-83
2021/09/05 00:05:05;;;;;;;9.93;5.57;;;16.70;74.20;;;;;;5064732;28;20016;-82
2021/09/05 00:07:30;;;;;;;10.73;5.78;;;16.70;74.20;;;;;;5066444;28;20028;-83
2021/09/05 00:09:56;;;;;;;8.60;6.10;;;16.70;74.30;;;;;;5066331;28;20094;-82
2021/09/05 00:12:23;;;;;;;8.13;5.78;;;16.70;74.20;;;;;;5071296;28;20024;-82
2021/09/05 00:14:48;;;;;;;11.00;5.97;;;16.70;74.30;;;;;;5072583;28;20020;-83
2021/09/05 00:17:14;;;;;;;10.23;6.07;;;16.60;74.30;;;;;;5088057;28;20040;-82
2021/09/05 00:19:39;;;;;;;10.40;6.60;;;16.70;74.30;;;;;;5066074;28;20020;-81
2021/09/05 00:22:05;;;;;;;11.07;6.93;;;16.60;74.30;;;;;;5083394;28;20025;-83
2021/09/05 00:24:31;;;;;;;10.15;6.60;;;16.60;74.30;;;;;;5080956;28;20095;-82
2021/09/05 00:30:18;;;;;;;11.07;6.22;;;16.50;74.40;;;;;;5083894;28;20031;-83
2021/09/05 00:32:43;;;;;;;9.38;6.03;;;16.50;74.40;;;;;;5083014;28;20045;-81
2021/09/05 00:35:10;;;;;;;10.25;6.22;;;16.50;74.50;;;;;;5082707;28;20065;-82
2021/09/05 00:37:35;;;;;;;10.52;6.78;;;16.40;74.50;;;;;;5081910;28;20028;-82
2021/09/05 00:40:01;;;;;;;9.15;6.00;;;16.40;74.50;;;;;;5062222;28;20123;-82
2021/09/05 00:42:27;;;;;;;11.48;7.10;;;16.40;74.60;;;;;;5061569;28;20074;-83
2021/09/05 00:44:54;;;;;;;9.55;6.43;;;16.40;74.70;;;;;;5061175;28;20021;-82
2021/09/05 00:47:21;;;;;;;9.60;6.45;;;16.30;74.80;;;;;;5079504;28;20040;-83
2021/09/05 00:49:47;;;;;;;9.82;6.45;;;16.30;74.80;;;;;;5060705;28;20052;-83
2021/09/05 00:52:14;;;;;;;9.98;5.90;;;16.30;74.80;;;;;;5078607;28;20029;-81
2021/09/05 00:54:42;;;;;;;10.43;6.40;;;16.30;74.90;;;;;;5078407;28;20021;-83
2021/09/05 00:57:15;;;;;;;9.73;6.47;;;16.30;75.00;;;;;;5078350;28;20107;-83
2021/09/05 00:59:42;;;;;;;10.48;6.47;;;16.20;74.90;;;;;;5057644;28;20029;-82
2021/09/05 01:02:09;;;;;;;11.23;6.00;;;16.20;75.00;;;;;;5058811;28;20108;-82
2021/09/05 01:04:35;;;;;;;12.90;6.53;;;16.20;75.00;;;;;;5077134;28;20016;-83
2021/09/05 01:07:01;;;;;;;12.18;7.10;;;16.10;75.00;;;;;;5058180;28;20031;-83
2021/09/05 01:09:30;;;;;;;11.38;7.03;;;16.10;75.10;;;;;;5059292;28;20032;-83
2021/09/05 01:11:57;;;;;;;11.57;6.20;;;16.10;75.80;;;;;;5059207;28;20039;-83
2021/09/05 01:14:23;;;;;;;10.15;6.45;;;16.10;75.20;;;;;;5058007;28;20070;-83
2021/09/05 01:16:49;;;;;;;10.60;6.00;;;16.00;75.20;;;;;;5058716;28;20078;-83
2021/09/05 01:19:18;;;;;;;10.45;6.40;;;16.00;75.20;;;;;;5057381;28;20491;-82
2021/09/05 01:21:49;;;;;;;10.23;6.05;;;16.00;75.30;;;;;;5090024;28;20032;-82
2021/09/05 01:24:16;;;;;;;10.85;6.47;;;16.00;75.30;;;;;;5055593;28;20480;-82
2021/09/05 01:26:43;;;;;;;8.60;6.25;;;16.00;75.30;;;;;;5074591;28;20166;-82
2021/09/05 01:29:10;;;;;;;13.18;6.38;;;15.90;75.30;;;;;;5056999;28;20055;-81
2021/09/05 01:31:56;;;;;;;12.00;6.60;;;15.90;75.30;;;;;;5057319;28;20021;-83
2021/09/05 01:34:23;;;;;;;9.35;6.22;;;15.90;75.40;;;;;;5073622;28;20512;-82
2021/09/05 01:36:51;;;;;;;10.23;5.70;;;15.90;75.40;;;;;;5075711;28;20492;-81
2021/09/05 01:39:17;;;;;;;11.82;5.78;;;15.90;75.40;;;;;;5080018;28;20088;-82
2021/09/05 01:41:44;;;;;;;9.25;5.90;;;15.90;75.40;;;;;;5081078;28;20020;-83
2021/09/05 01:44:14;;;;;;;10.65;6.10;;;15.90;75.40;;;;;;5062995;28;20454;-82
2021/09/05 01:46:40;;;;;;;11.25;6.07;;;15.90;75.40;;;;;;5061543;28;20048;-83
2021/09/05 01:49:06;;;;;;;12.07;6.78;;;15.80;75.40;;;;;;5061433;28;20029;-82
2021/09/05 01:51:32;;;;;;;9.32;5.90;;;15.80;75.50;;;;;;5078513;28;20032;-82
2021/09/05 01:53:58;;;;;;;10.75;5.75;;;15.80;75.50;;;;;;5060756;28;20089;-83
2021/09/05 01:56:26;;;;;;;10.15;5.72;;;15.80;75.50;;;;;;5061231;28;20048;-81
2021/09/05 01:58:52;;;;;;;9.82;5.90;;;15.80;75.60;;;;;;5078824;28;20036;-81
2021/09/05 02:01:17;;;;;;;9.85;5.78;;;15.70;75.60;;;;;;5060171;28;20084;-82
2021/09/05 02:03:43;;;;;;;11.77;6.43;;;15.70;75.60;;;;;;5077722;28;20027;-83
2021/09/05 02:06:09;;;;;;;10.15;6.32;;;15.70;75.60;;;;;;5060132;28;20474;-82
2021/09/05 02:08:35;;;;;;;7.22;5.60;;;15.70;75.60;;;;;;5078579;28;20388;-82
2021/09/05 02:11:00;;;;;;;10.05;6.13;;;15.70;75.70;;;;;;5062355;28;20072;-82
2021/09/05 02:13:26;;;;;;;9.95;6.10;;;15.70;75.80;;;;;;5060493;28;20040;-82
2021/09/05 02:15:52;;;;;;;10.57;6.10;;;15.70;75.70;;;;;;5059266;28;20054;-82
2021/09/05 02:18:18;;;;;;;11.18;5.82;;;15.60;75.70;;;;;;5059625;28;20112;-81
2021/09/05 02:20:44;;;;;;;10.45;5.95;;;15.60;75.80;;;;;;5077567;28;20375;-82
2021/09/05 02:23:09;;;;;;;10.98;5.75;;;15.60;75.80;;;;;;5059767;28;20165;-82
2021/09/05 02:25:35;;;;;;;8.00;5.50;;;15.50;75.80;;;;;;5076345;28;20135;-81
2021/09/05 02:28:00;;;;;;;10.27;6.10;;;15.50;75.90;;;;;;5077239;28;20476;-82
2021/09/05 02:30:26;;;;;;;15.07;6.13;;;15.50;75.90;;;;;;5059259;28;20488;-82
2021/09/05 02:32:52;;;;;;;13.25;6.90;;;15.50;76.00;;;;;;5046622;28;20083;-82
2021/09/05 02:35:17;;;;;;;10.05;5.88;;;15.50;76.00;;;;;;5068966;28;20038;-83
2021/09/05 02:37:43;;;;;;;10.98;5.70;;;15.50;76.00;;;;;;5036704;28;20032;-82
2021/09/05 02:40:10;;;;;;;10.55;6.32;;;15.40;76.00;;;;;;5068815;28;20017;-83
2021/09/05 02:42:36;;;;;;;12.35;6.65;;;15.40;76.10;;;;;;5069266;28;20075;-82
2021/09/05 02:45:04;;;;;;;10.13;5.90;;;15.30;76.10;;;;;;5068838;28;20124;-82
2021/09/05 02:47:30;;;;;;;10.80;5.68;;;15.40;76.20;;;;;;5068666;28;20037;-82
2021/09/05 02:49:56;;;;;;;9.82;5.72;;;15.30;76.20;;;;;;5035942;28;20482;-82
2021/09/05 02:52:22;;;;;;;10.57;6.00;;;15.40;76.30;;;;;;5035400;28;20041;-80
2021/09/05 02:54:47;;;;;;;10.15;6.30;;;15.30;76.30;;;;;;5068916;28;20029;-82
2021/09/05 02:57:13;;;;;;;10.43;5.80;;;15.30;76.30;;;;;;5069003;28;20029;-82
2021/09/05 02:59:38;;;;;;;10.68;6.90;;;15.30;76.30;;;;;;5068256;28;20527;-82
2021/09/05 03:02:05;;;;;;;10.55;6.32;;;15.30;76.30;;;;;;5067496;28;20018;-83
2021/09/05 03:04:30;;;;;;;11.07;6.28;;;15.30;76.30;;;;;;5035611;28;20500;-83
2021/09/05 03:06:56;;;;;;;11.82;6.22;;;15.30;76.30;;;;;;5068850;28;20026;-83
2021/09/05 03:09:22;;;;;;;8.25;6.22;;;15.20;76.30;;;;;;5069195;28;20521;-83
2021/09/05 03:11:48;;;;;;;11.90;6.70;;;15.20;76.40;;;;;;5068556;28;20035;-83
2021/09/05 03:14:14;;;;;;;12.18;6.28;;;15.20;76.50;;;;;;5068342;28;20474;-83
2021/09/05 03:16:39;;;;;;;10.27;6.22;;;15.10;76.50;;;;;;5068082;28;20032;-82
2021/09/05 03:19:05;;;;;;;11.45;6.80;;;15.10;76.60;;;;;;5036619;28;20040;-82
2021/09/05 03:21:31;;;;;;;10.90;6.30;;;15.10;76.70;;;;;;5068963;28;20120;-82
2021/09/05 03:23:56;;;;;;;11.77;6.15;;;15.10;76.80;;;;;;5069074;28;20106;-83
2021/09/05 03:26:22;;;;;;;9.38;6.63;;;15.00;76.80;;;;;;5069437;28;20029;-83
2021/09/05 03:28:48;;;;;;;10.27;6.20;;;15.00;76.90;;;;;;5035455;28;20033;-82
2021/09/05 03:31:13;;;;;;;9.27;6.38;;;15.00;77.10;;;;;;5070459;28;20025;-82
2021/09/05 03:33:39;;;;;;;7.80;5.35;;;14.90;77.10;;;;;;5068888;28;20045;-82
2021/09/05 03:36:05;;;;;;;10.27;6.30;;;14.90;77.20;;;;;;5068410;28;20029;-83
2021/09/05 03:38:32;;;;;;;11.93;6.72;;;14.80;77.20;;;;;;5034349;28;20037;-83
2021/09/05 03:40:58;;;;;;;9.90;5.90;;;14.80;77.30;;;;;;5067778;28;20028;-83
2021/09/05 03:43:23;;;;;;;10.95;6.40;;;14.80;77.40;;;;;;5068426;28;20097;-83
2021/09/05 03:45:49;;;;;;;11.20;6.50;;;14.80;77.60;;;;;;5034957;28;20029;-82
2021/09/05 03:48:14;;;;;;;11.13;6.38;;;14.70;77.70;;;;;;5036519;28;20045;-83
2021/09/05 03:50:40;;;;;;;11.68;6.47;;;14.70;77.70;;;;;;5068305;28;20025;-83
2021/09/05 03:53:06;;;;;;;11.23;6.60;;;14.60;77.80;;;;;;5067950;28;20120;-83
2021/09/05 03:55:31;;;;;;;12.07;6.43;;;14.60;77.90;;;;;;5034592;28;20064;-82
2021/09/05 03:57:57;;;;;;;9.93;6.47;;;14.60;78.00;;;;;;5067621;28;20033;-82
2021/09/05 04:00:23;;;;;;;11.77;6.85;;;14.60;78.00;;;;;;5034280;28;20033;-83
2021/09/05 04:02:48;;;;;;;12.98;6.68;;;14.60;78.10;;;;;;5067540;28;20036;-82
2021/09/05 04:05:14;;;;;;;11.32;6.90;;;14.60;78.10;;;;;;5034826;28;20048;-82
2021/09/05 04:07:44;;;;;;;10.13;6.38;;;14.60;78.20;;;;;;5035260;28;20052;-83
2021/09/05 04:10:10;;;;;;;12.25;6.85;;;14.60;78.20;;;;;;5035166;28;20029;-83
2021/09/05 04:12:41;;;;;;;11.95;7.22;;;14.60;78.20;;;;;;5067184;28;20144;-83
2021/09/05 04:15:07;;;;;;;12.15;6.78;;;14.60;78.20;;;;;;5066729;28;20025;-82
2021/09/05 04:17:33;;;;;;;12.75;7.18;;;14.60;78.20;;;;;;5034597;28;20585;-82
2021/09/05 04:19:59;;;;;;;8.98;6.50;;;14.50;78.30;;;;;;5033376;28;20071;-83
2021/09/05 04:22:25;;;;;;;12.00;7.50;;;14.50;78.40;;;;;;5033283;28;20029;-82
2021/09/05 04:24:51;;;;;;;10.90;6.40;;;14.50;78.40;;;;;;5066648;28;20026;-82
2021/09/05 04:27:17;;;;;;;13.68;6.95;;;14.40;78.50;;;;;;5032767;28;20112;-83
2021/09/05 04:29:43;;;;;;;11.82;7.00;;;14.40;78.70;;;;;;5034393;28;20025;-83
2021/09/05 04:32:09;;;;;;;11.00;6.47;;;14.40;78.50;;;;;;5033286;28;20103;-83
2021/09/05 04:34:34;;;;;;;10.32;6.82;;;14.40;78.60;;;;;;5066823;28;20029;-82
2021/09/05 04:37:00;;;;;;;9.05;5.90;;;14.40;78.60;;;;;;5034126;28;20017;-83
2021/09/05 04:39:26;;;;;;;10.70;6.30;;;14.40;78.70;;;;;;5032624;28;20017;-82
2021/09/05 04:41:52;;;;;;;9.05;6.35;;;14.40;78.70;;;;;;5034211;28;20044;-82
2021/09/05 04:44:18;;;;;;;9.95;7.07;;;14.40;78.70;;;;;;5066174;28;20078;-82
2021/09/05 04:46:43;;;;;;;11.00;6.75;;;14.30;78.60;;;;;;5065946;28;20029;-82
2021/09/05 04:49:10;;;;;;;9.32;6.43;;;14.30;78.70;;;;;;5032480;28;20033;-82
2021/09/05 04:51:35;;;;;;;10.75;6.72;;;14.30;78.80;;;;;;5065810;28;20025;-82
2021/09/05 04:54:02;;;;;;;11.30;6.97;;;14.20;78.80;;;;;;5033074;28;20100;-82
2021/09/05 04:56:27;;;;;;;12.00;7.43;;;14.20;78.90;;;;;;5034147;28;20382;-82
2021/09/05 04:58:53;;;;;;;12.13;7.53;;;14.10;78.90;;;;;;5034267;28;20128;-82
2021/09/05 05:01:18;;;;;;;11.65;7.30;;;14.10;79.00;;;;;;5033017;28;20029;-83
2021/09/05 05:03:44;;;;;;;12.88;7.55;;;14.10;79.10;;;;;;5033944;28;20076;-81
2021/09/05 05:06:10;;;;;;;13.18;7.50;;;14.10;79.10;;;;;;5049724;28;20080;-83
2021/09/05 05:08:35;;;;;;;11.50;7.57;;;14.10;79.20;;;;;;5066133;28;20116;-83
2021/09/05 05:11:01;;;;;;;11.55;7.03;;;14.10;79.20;;;;;;5066610;28;20029;-83
2021/09/05 05:13:27;;;;;;;12.93;7.32;;;14.10;79.20;;;;;;5069961;28;20037;-83
2021/09/05 05:15:55;;;;;;;13.27;7.90;;;14.10;79.20;;;;;;5070956;28;20029;-82
2021/09/05 05:18:23;;;;;;;12.02;7.32;;;14.10;79.20;;;;;;5054170;28;20036;-83
2021/09/05 05:20:49;;;;;;;13.82;7.50;;;14.10;79.20;;;;;;5070699;28;20033;-83
2021/09/05 05:23:15;;;;;;;10.10;7.40;;;14.10;79.20;;;;;;5070152;28;20022;-83
2021/09/05 05:25:41;;;;;;;12.57;7.72;;;14.00;79.20;;;;;;5069933;28;20056;-83
2021/09/05 05:28:06;;;;;;;11.57;7.20;;;14.00;79.10;;;;;;5053686;28;20037;-83
2021/09/05 05:30:32;;;;;;;12.65;7.68;;;14.00;79.20;;;;;;5070940;28;20044;-83
2021/09/05 05:32:58;;;;;;;11.02;7.15;;;14.00;79.20;;;;;;5054547;28;20092;-82
2021/09/05 05:35:26;;;;;;;11.18;7.50;;;14.00;79.20;;;;;;5040937;28;20038;-83
2021/09/05 05:37:52;;;;;;;13.73;7.72;;;14.00;79.90;;;;;;5056416;28;20037;-81
2021/09/05 05:40:22;;;;;;;13.98;7.78;;;14.00;79.40;;;;;;5040771;28;20068;-83
2021/09/05 05:42:49;;;;;;;12.23;7.30;;;13.90;79.40;;;;;;5071752;28;20053;-82
2021/09/05 05:45:18;;;;;;;12.23;7.35;;;13.90;79.40;;;;;;5039501;28;20397;-81
2021/09/05 05:47:45;;;;;;;9.68;6.57;;;13.90;79.50;;;;;;5071300;28;20025;-82
2021/09/05 05:50:10;;;;;;;13.13;8.07;;;13.90;79.40;;;;;;5038768;28;20056;-82
2021/09/05 05:52:37;;;;;;;12.55;7.03;;;13.90;79.50;;;;;;5071585;28;20436;-82
2021/09/05 05:55:03;;;;;;;14.30;7.40;;;13.90;79.50;;;;;;5055370;28;20476;-83
2021/09/05 05:57:29;;;;;;;10.85;6.80;;;14.00;79.60;;;;;;5071917;28;20032;-82
2021/09/05 05:59:54;;;;;;;12.25;7.10;;;14.00;79.60;;;;;;5071082;28;20124;-83
2021/09/05 06:02:20;;;;;;;11.85;7.60;;;14.00;79.50;;;;;;5070312;28;20025;-83
2021/09/05 06:04:46;;;;;;;12.90;6.80;;;14.10;79.50;;;;;;5038687;28;20464;-82
2021/09/05 06:07:12;;;;;;;11.07;7.03;;;14.10;79.40;;;;;;5070516;28;20393;-82
2021/09/05 06:09:43;;;;;;;11.38;7.03;;;14.10;79.40;;;;;;5038057;28;20481;-84
2021/09/05 06:12:10;;;;;;;11.98;6.97;;;14.20;79.40;;;;;;5070281;28;20033;-82
2021/09/05 06:14:39;;;;;;;14.27;7.03;;;14.20;79.40;;;;;;5053505;28;20068;-82
2021/09/05 06:17:05;;;;;;;10.93;6.80;;;14.20;79.40;;;;;;5037883;28;20136;-82
2021/09/05 06:19:31;;;;;;;13.90;7.05;;;14.20;79.30;;;;;;5070031;28;20507;-81
2021/09/05 06:21:56;;;;;;;14.32;7.40;;;14.20;79.30;;;;;;5036104;28;20067;-82
2021/09/05 06:24:22;;;;;;;9.68;6.53;;;14.30;79.30;;;;;;5068425;28;20025;-82
2021/09/05 06:26:48;;;;;;;11.20;6.35;;;14.40;79.20;;;;;;5069190;28;20025;-82
2021/09/05 06:29:14;;;;;;;11.02;6.75;;;14.40;79.10;;;;;;5069830;28;20029;-82
2021/09/05 06:31:39;;;;;;;10.73;6.70;;;14.50;79.10;;;;;;5053679;28;20492;-83
2021/09/05 06:34:05;;;;;;;10.05;6.60;;;14.50;79.00;;;;;;5036427;28;20456;-82
2021/09/05 06:36:31;;;;;;;9.57;6.30;;;14.60;78.90;;;;;;5069644;28;20397;-81
2021/09/05 06:38:57;;;;;;;10.02;5.97;;;14.60;78.80;;;;;;5037432;28;20091;-82
2021/09/05 06:41:22;;;;;;;9.73;5.75;;;14.70;78.70;;;;;;5036791;28;20061;-82
2021/09/05 06:43:48;;;;;;;9.25;5.75;;;14.70;78.60;;;;;;5035550;28;20041;-83
2021/09/05 06:46:14;;;;;;;10.25;5.97;;;14.80;78.50;;;;;;5036721;28;20437;-84
2021/09/05 06:48:43;;;;;;;8.25;6.03;;;14.90;78.40;;;;;;5036945;28;20029;-83
2021/09/05 06:51:59;;;;;;;9.82;6.40;;;14.90;78.30;;;;;;5069615;28;20033;-84
2021/09/05 06:54:25;;;;;;;8.30;5.60;;;15.00;78.20;;;;;;5068879;28;20036;-84
2021/09/05 06:56:50;;;;;;;9.10;5.38;;;15.10;78.00;;;;;;5066460;28;20405;-84
2021/09/05 06:59:16;;;;;;;10.25;5.65;;;15.10;77.90;;;;;;5068415;28;20029;-83
2021/09/05 07:01:42;;;;;;;10.60;5.53;;;15.20;77.70;;;;;;5037273;28;20036;-83
2021/09/05 07:04:07;;;;;;;9.45;5.30;;;15.30;77.60;;;;;;5035164;28;20444;-83
2021/09/05 07:06:33;;;;;;;8.20;5.15;;;15.40;77.50;;;;;;5037316;28;20037;-82
2021/09/05 07:08:59;;;;;;;8.57;5.53;;;15.40;77.30;;;;;;5070162;28;20078;-82
2021/09/05 07:11:25;;;;;;;8.55;5.30;;;15.40;77.00;;;;;;5037607;28;20388;-82
2021/09/05 07:13:51;;;;;;;7.88;5.20;;;15.50;76.90;;;;;;5069929;28;20457;-82
2021/09/05 07:16:16;;;;;;;7.40;4.68;;;15.60;76.70;;;;;;5036166;28;20155;-83
2021/09/05 07:18:42;;;;;;;8.27;5.25;;;15.60;76.50;;;;;;5069060;28;20400;-82
2021/09/05 07:21:08;;;;;;;8.07;4.50;;;15.60;76.40;;;;;;5068435;28;20026;-81
2021/09/05 07:23:33;;;;;;;8.25;4.65;;;15.70;76.20;;;;;;5035336;28;20041;-84
2021/09/05 07:26:02;;;;;;;6.85;4.80;;;15.80;76.10;;;;;;5036775;28;20034;-84
2021/09/05 07:28:32;;;;;;;8.48;4.63;;;15.90;76.00;;;;;;5069300;28;20524;-84
2021/09/05 07:34:19;;;;;;;6.38;4.20;;;16.00;75.40;;;;;;5069949;28;20086;-83
2021/09/05 07:36:45;;;;;;;9.70;4.50;;;16.00;75.30;;;;;;5077538;28;20033;-84
2021/09/05 07:39:11;;;;;;;7.57;4.75;;;16.00;75.00;;;;;;5060179;28;20545;-83
2021/09/05 07:41:37;;;;;;;8.30;4.70;;;16.10;74.90;;;;;;5059094;28;20491;-82
2021/09/05 07:44:04;;;;;;;6.32;4.35;;;16.10;74.80;;;;;;5058995;28;20020;-83
2021/09/05 07:46:30;;;;;;;8.30;4.78;;;16.20;74.80;;;;;;5059631;28;20047;-82
2021/09/05 07:48:56;;;;;;;6.93;4.60;;;16.30;74.80;;;;;;5058743;28;20553;-83
2021/09/05 07:51:24;;;;;;;8.73;4.72;;;16.30;74.60;;;;;;5058938;28;20025;-84
2021/09/05 07:53:50;;;;;;;6.03;4.50;;;16.40;74.50;;;;;;5059021;28;20051;-84
2021/09/05 07:56:59;;;;;;;6.95;4.63;;;16.50;74.30;;;;;;5076341;28;20024;-85
2021/09/05 07:59:25;;;;;;;5.75;4.25;;;16.50;74.10;;;;;;5076629;28;20370;-83
2021/09/05 08:01:51;;;;;;;7.30;4.68;;;16.60;74.00;;;;;;5076725;28;20051;-85
2021/09/05 08:04:16;;;;;;;6.95;4.75;;;16.70;74.00;;;;;;5058738;28;20029;-84
2021/09/05 08:07:29;;;;;;;7.20;4.47;;;16.80;73.90;;;;;;5059054;28;20029;-83
2021/09/05 08:09:54;;;;;;;7.03;4.95;;;16.80;73.70;;;;;;5078124;28;20514;-83
2021/09/05 08:12:20;;;;;;;9.98;5.15;;;16.90;73.60;;;;;;5059908;28;20021;-83
2021/09/05 08:14:45;;;;;;;9.27;5.07;;;16.90;73.50;;;;;;5060473;28;20056;-84
2021/09/05 08:17:11;;;;;;;9.32;5.50;;;17.00;73.40;;;;;;5059256;28;20028;-86
2021/09/05 08:19:37;;;;;;;9.10;5.00;;;17.00;73.30;;;;;;5058939;28;20028;-84
2021/09/05 08:22:03;;;;;;;6.97;4.70;;;17.10;73.30;;;;;;5058680;28;20464;-82
2021/09/05 08:27:50;;;;;;;8.93;4.93;;;17.20;73.10;;;;;;5076977;28;20043;-83
2021/09/05 08:30:16;;;;;;;7.82;4.95;;;17.20;72.90;;;;;;5059001;28;20032;-83
2021/09/05 08:32:41;;;;;;;7.47;5.22;;;17.30;72.80;;;;;;5077638;28;20112;-82
2021/09/05 08:35:07;;;;;;;6.85;4.90;;;17.30;72.70;;;;;;5078464;28;20064;-83
2021/09/05 08:37:33;;;;;;;8.30;4.78;;;17.40;72.70;;;;;;5078796;28;20480;-82
2021/09/05 08:39:59;;;;;;;7.13;5.22;;;17.50;72.60;;;;;;5081190;28;20100;-82
2021/09/05 08:42:24;;;;;;;8.20;5.47;;;17.60;72.60;;;;;;5079500;28;20024;-82
2021/09/05 08:44:50;;;;;;;8.20;4.97;;;17.70;72.50;;;;;;5060977;28;20079;-81
2021/09/05 08:47:16;;;;;;;7.25;4.35;;;17.70;72.30;;;;;;5079178;28;20458;-83
2021/09/05 08:49:43;;;;;;;8.80;5.18;;;17.80;72.20;;;;;;5059888;28;20099;-84
2021/09/05 08:52:09;;;;;;;8.57;4.60;;;17.80;72.10;;;;;;5078441;28;20028;-84
2021/09/05 08:54:35;;;;;;;8.40;5.20;;;17.90;72.10;;;;;;5061470;28;20024;-84
2021/09/05 08:57:02;;;;;;;7.03;4.57;;;17.90;72.00;;;;;;5061453;28;20066;-83
2021/09/05 08:59:28;;;;;;;8.93;4.85;;;18.00;71.90;;;;;;5060246;28;20133;-83
2021/09/05 09:01:56;;;;;;;6.53;4.53;;;18.10;71.80;;;;;;5092883;28;20032;-83
2021/09/05 09:04:23;;;;;;;8.70;4.82;;;18.20;71.70;;;;;;5061648;28;20037;-84
2021/09/05 09:06:48;;;;;;;7.07;4.85;;;18.30;71.60;;;;;;5082314;28;20514;-84
2021/09/05 09:09:14;;;;;;;6.50;4.35;;;18.30;71.30;;;;;;5069932;28;20088;-81
2021/09/05 09:11:50;;;;;;;8.80;4.72;;;18.40;71.20;;;;;;5068387;28;20043;-84
2021/09/05 09:14:16;;;;;;;9.35;5.00;;;18.50;70.80;;;;;;5067279;28;20031;-84
2021/09/05 09:16:42;;;;;;;7.43;4.60;;;18.50;70.70;;;;;;5086126;28;20021;-83
2021/09/05 09:19:20;;;;;;;6.70;4.55;;;18.50;70.60;;;;;;5067884;28;20067;-84
2021/09/05 09:21:45;;;;;;;6.75;4.65;;;18.60;70.50;;;;;;5062000;28;20024;-83
2021/09/05 09:24:22;;;;;;;7.43;4.78;;;18.60;70.40;;;;;;5060825;28;20067;-83
2021/09/05 09:26:59;;;;;;;7.88;4.72;;;18.70;70.30;;;;;;5094060;28;20111;-83
2021/09/05 09:29:25;;;;;;;8.13;5.30;;;18.80;70.10;;;;;;5094836;28;20024;-83
2021/09/05 09:32:04;;;;;;;9.00;4.90;;;18.80;69.70;;;;;;5078475;28;20092;-82
2021/09/05 09:34:39;;;;;;;7.82;4.40;;;18.90;69.60;;;;;;5060356;28;20131;-83
2021/09/05 09:37:17;;;;;;;6.55;4.60;;;18.90;69.50;;;;;;5060750;28;20024;-84
2021/09/05 09:39:51;;;;;;;6.90;4.97;;;18.90;69.30;;;;;;5061822;28;20029;-84
2021/09/05 09:42:34;;;;;;;6.60;4.43;;;18.90;69.00;;;;;;5060507;28;20035;-84
2021/09/05 09:45:01;;;;;;;6.17;4.67;;;19.00;69.10;;;;;;5061316;28;20036;-83
2021/09/05 09:47:37;;;;;;;5.90;4.10;;;19.10;69.20;;;;;;5063285;28;20020;-84
2021/09/05 09:50:03;;;;;;;6.28;4.57;;;19.20;68.90;;;;;;5082241;28;20024;-84
2021/09/05 09:52:30;;;;;;;7.30;4.30;;;19.30;68.70;;;;;;5063540;28;20029;-82
2021/09/05 09:54:57;;;;;;;6.72;4.25;;;19.30;69.20;;;;;;5064807;28;20055;-82
2021/09/05 09:57:23;;;;;;;5.50;4.20;;;19.40;68.40;;;;;;5065029;28;20024;-83
2021/09/05 09:59:48;;;;;;;5.95;4.40;;;19.40;68.20;;;;;;5067842;28;20035;-83
2021/09/05 10:02:18;;;;;;;6.78;4.32;;;19.50;68.30;;;;;;5067723;28;20032;-84
2021/09/05 10:04:47;;;;;;;6.75;4.20;;;19.60;68.20;;;;;;5067092;28;20056;-84
2021/09/05 10:07:16;;;;;;;7.35;4.57;;;19.60;68.00;;;;;;5085866;28;20086;-84
2021/09/05 10:09:42;;;;;;;5.97;4.22;;;19.70;67.80;;;;;;5067366;28;20025;-84
2021/09/05 10:12:09;;;;;;;7.68;4.45;;;19.80;67.70;;;;;;5082869;28;20040;-84
2021/09/05 10:14:38;;;;;;;7.45;4.45;;;19.80;67.50;;;;;;5080860;28;20028;-85
2021/09/05 10:17:05;;;;;;;6.15;4.20;;;19.90;67.40;;;;;;5066182;28;20020;-84
2021/09/05 10:19:36;;;;;;;7.28;5.18;;;19.90;67.00;;;;;;5085314;28;20060;-84
2021/09/05 10:22:03;;;;;;;7.40;4.72;;;19.90;66.60;;;;;;5066822;28;20028;-84
2021/09/05 10:24:49;;;;;;;8.65;4.57;;;19.90;66.60;;;;;;5084994;28;20032;-84
2021/09/05 10:27:15;;;;;;;6.07;4.45;;;19.90;67.40;;;;;;5084150;28;20045;-84
2021/09/05 10:30:14;;;;;;;7.40;4.32;;;20.00;66.70;;;;;;5085355;28;20033;-84
2021/09/05 10:32:55;;;;;;;8.03;5.00;;;20.10;66.60;;;;;;5028678;28;1061907;-83
2021/09/05 10:35:44;;;;;;;7.45;4.72;;;20.10;66.40;;;;;;5068391;28;20492;-84
2021/09/05 10:38:26;;;;;;;7.70;4.25;;;20.20;66.30;;;;;;5084273;28;20046;-84
2021/09/05 10:41:00;;;;;;;6.05;4.05;;;20.20;66.30;;;;;;5066722;28;20036;-84
2021/09/05 10:43:48;;;;;;;6.25;4.22;;;20.30;66.00;;;;;;5065679;28;20029;-84
2021/09/05 10:46:39;;;;;;;5.53;4.07;;;20.50;65.80;;;;;;5065480;28;20055;-85
2021/09/05 10:49:05;;;;;;;5.10;3.72;;;20.50;65.60;;;;;;5056645;28;20036;-85
2021/09/05 10:51:42;;;;;;;6.38;4.40;;;20.50;65.40;;;;;;5083417;28;20059;-85
2021/09/05 10:54:26;;;;;;;5.07;3.83;;;20.60;65.10;;;;;;5064355;28;20040;-85
2021/09/05 10:56:53;;;;;;;5.85;4.22;;;20.70;65.00;;;;;;5081903;28;20036;-84
2021/09/05 10:59:24;;;;;;;5.47;4.28;;;20.70;64.70;;;;;;5064911;28;20116;-85
2021/09/05 11:01:50;;;;;;;6.47;4.32;;;20.90;64.30;;;;;;5098029;28;20021;-84
2021/09/05 11:04:15;;;;;;;6.50;4.30;;;20.80;63.80;;;;;;5063963;28;20086;-85
2021/09/05 11:06:42;;;;;;;7.45;4.40;;;20.90;63.90;;;;;;5062325;28;20119;-85
2021/09/05 11:09:21;;;;;;;6.07;3.83;;;20.90;63.60;;;;;;5062128;28;20063;-85
2021/09/05 11:12:26;;;;;;;6.60;4.05;;;21.00;63.40;;;;;;5080190;28;20025;-83
2021/09/05 11:14:52;;;;;;;7.15;4.10;;;21.10;63.30;;;;;;5063380;28;20062;-83
2021/09/05 11:17:30;;;;;;;5.28;3.72;;;21.10;63.40;;;;;;5060367;28;20029;-85
2021/09/05 11:20:04;;;;;;;6.28;4.20;;;21.20;63.30;;;;;;5061664;28;20031;-84
2021/09/05 11:22:33;;;;;;;7.10;4.18;;;21.30;62.80;;;;;;5081419;28;20028;-85
2021/09/05 11:25:05;;;;;;;7.00;4.57;;;21.30;62.80;;;;;;5080497;28;20076;-85
2021/09/05 11:27:30;;;;;;;7.05;4.47;;;21.40;62.60;;;;;;5065248;28;20037;-86
2021/09/05 11:30:01;;;;;;;5.18;4.07;;;21.50;62.40;;;;;;5063621;28;20116;-85
2021/09/05 11:32:27;;;;;;;5.38;4.07;;;21.50;62.40;;;;;;5063071;28;20102;-85
2021/09/05 11:34:56;;;;;;;4.15;3.60;;;21.60;62.30;;;;;;5063035;28;20044;-84
2021/09/05 11:37:43;;;;;;;5.97;3.60;;;21.70;62.10;;;;;;5080871;28;20032;-85
2021/09/05 11:40:15;;;;;;;7.20;3.70;;;21.90;61.90;;;;;;5081756;28;20443;-85
2021/09/05 11:42:49;;;;;;;5.37;4.00;;;21.90;61.70;;;;;;5063891;28;20412;-85
2021/09/05 11:45:16;;;;;;;5.53;3.63;;;22.00;61.40;;;;;;5080953;28;20078;-85
2021/09/05 11:47:43;;;;;;;6.45;4.25;;;22.00;61.50;;;;;;5061594;28;20047;-85
2021/09/05 11:50:13;;;;;;;5.80;3.80;;;22.10;61.10;;;;;;5059810;28;20037;-85
2021/09/05 11:52:40;;;;;;;5.95;3.75;;;22.20;60.80;;;;;;5059887;28;20029;-85
2021/09/05 11:55:07;;;;;;;6.65;4.55;;;22.30;60.40;;;;;;5077832;28;20103;-86
2021/09/05 11:57:49;;;;;;;6.97;4.07;;;22.30;59.90;;;;;;5076220;28;20419;-85
2021/09/05 12:00:25;;;;;;;6.28;4.18;;;22.40;59.80;;;;;;5059322;28;20020;-85
2021/09/05 12:02:54;;;;;;;6.47;4.43;;;22.50;59.80;;;;;;5059313;28;20082;-84
2021/09/05 12:05:23;;;;;;;4.53;3.60;;;22.60;59.70;;;;;;5057533;28;20029;-85
2021/09/05 12:07:50;;;;;;;4.75;3.95;;;22.70;59.60;;;;;;5075654;28;20039;-86
2021/09/05 12:10:18;;;;;;;6.07;4.47;;;22.80;59.30;;;;;;5058239;28;20017;-86
2021/09/05 12:12:55;;;;;;;4.68;3.95;;;22.80;59.00;;;;;;5075385;28;20031;-85
2021/09/05 12:15:21;;;;;;;6.10;4.40;;;22.90;59.10;;;;;;5090311;28;20119;-85
2021/09/05 12:17:48;;;;;;;6.85;4.80;;;22.90;58.90;;;;;;5075176;28;20063;-85
2021/09/05 12:20:20;;;;;;;7.05;4.28;;;22.90;58.30;;;;;;5056964;28;20078;-85
2021/09/05 12:22:46;;;;;;;6.45;3.60;;;22.90;58.40;;;;;;5074998;28;20028;-86
2021/09/05 12:25:20;;;;;;;5.15;3.78;;;23.00;58.60;;;;;;5075511;28;20044;-85
2021/09/05 12:28:18;;;;;;;6.57;4.38;;;23.10;58.30;;;;;;5076306;28;20028;-85
2021/09/05 12:30:51;;;;;;;5.57;3.88;;;23.10;57.70;;;;;;5058018;28;20142;-85
2021/09/05 12:33:31;;;;;;;6.15;4.43;;;23.20;57.70;;;;;;5058117;28;20044;-85
2021/09/05 12:36:14;;;;;;;6.97;4.43;;;23.20;57.40;;;;;;5057704;28;20032;-85
2021/09/05 12:38:42;;;;;;;7.03;4.80;;;23.30;56.90;;;;;;5058567;28;20541;-86
2021/09/05 12:41:13;;;;;;;7.13;4.50;;;23.20;56.60;;;;;;5076355;28;20031;-85
2021/09/05 12:43:44;;;;;;;7.10;4.43;;;23.30;56.60;;;;;;5058201;28;20024;-85
2021/09/05 12:46:10;;;;;;;5.68;4.13;;;23.40;56.60;;;;;;5057605;28;20051;-85
2021/09/05 12:48:39;;;;;;;6.45;4.47;;;23.50;56.30;;;;;;5075431;28;20437;-85
2021/09/05 12:51:11;;;;;;;5.20;3.97;;;23.50;55.80;;;;;;5074531;28;20037;-85
2021/09/05 12:53:50;;;;;;;4.97;4.05;;;23.50;55.50;;;;;;5056208;28;20094;-85
2021/09/05 12:56:17;;;;;;;5.43;4.00;;;23.60;55.40;;;;;;5055879;28;20340;-85
2021/09/05 12:58:42;;;;;;;5.68;4.10;;;23.70;55.50;;;;;;5055633;28;20028;-84